createdAt,value
2023-03-11T00:01:03.545Z,30.70
2023-03-11T00:03:29.790Z,30.60
2023-03-11T00:06:00.182Z,30.60
2023-03-11T00:08:27.547Z,30.60
2023-03-11T00:11:19.135Z,30.60
2023-03-11T00:13:48.334Z,30.60
2023-03-11T00:16:17.915Z,30.60
2023-03-11T00:18:44.038Z,30.60
2023-03-11T00:21:16.445Z,30.60
2023-03-11T00:23:42.751Z,31.30
2023-03-11T00:26:14.359Z,30.60
2023-03-11T00:28:40.509Z,30.60
2023-03-11T00:31:31.832Z,30.60
2023-03-11T00:33:57.925Z,30.60
2023-03-11T00:36:33.111Z,30.60
2023-03-11T00:39:07.196Z,30.70
2023-03-11T00:41:34.379Z,30.60
2023-03-11T00:44:02.833Z,30.60
2023-03-11T00:46:35.685Z,30.60
2023-03-11T00:49:03.517Z,30.60
2023-03-11T00:51:34.376Z,30.60
2023-03-11T00:54:09.015Z,30.60
2023-03-11T00:56:35.211Z,30.60
2023-03-11T00:59:03.972Z,30.60
2023-03-11T01:01:45.308Z,30.60
2023-03-11T01:04:11.463Z,30.60
2023-03-11T01:06:45.577Z,30.60
2023-03-11T01:09:16.332Z,30.60
2023-03-11T01:11:42.393Z,30.60
2023-03-11T01:14:09.429Z,30.60
2023-03-11T01:16:39.167Z,30.60
2023-03-11T01:19:11.560Z,30.60
2023-03-11T01:21:37.831Z,30.70
2023-03-11T01:24:06.808Z,30.60
2023-03-11T01:26:38.146Z,30.60
2023-03-11T01:29:09.315Z,30.60
2023-03-11T01:31:35.397Z,30.60
2023-03-11T01:34:01.484Z,30.60
2023-03-11T01:36:28.440Z,30.60
2023-03-11T01:38:54.490Z,30.60
2023-03-11T01:41:23.058Z,30.60
2023-03-11T01:43:54.977Z,30.60
2023-03-11T01:46:39.208Z,30.60
2023-03-11T01:49:05.651Z,30.60
2023-03-11T01:51:39.028Z,30.60
2023-03-11T01:54:21.529Z,30.60
2023-03-11T01:56:50.052Z,30.60
2023-03-11T01:59:41.145Z,30.60
2023-03-11T02:02:13.108Z,30.60
2023-03-11T02:04:41.159Z,30.60
2023-03-11T02:07:08.650Z,30.60
2023-03-11T02:09:34.999Z,30.60
2023-03-11T02:12:08.745Z,30.60
2023-03-11T02:14:42.265Z,30.60
2023-03-11T02:17:08.904Z,30.60
2023-03-11T02:19:53.698Z,30.60
2023-03-11T02:22:20.424Z,30.60
2023-03-11T02:25:12.877Z,30.60
2023-03-11T02:27:46.857Z,30.60
2023-03-11T02:30:14.617Z,31.10
2023-03-11T02:32:47.850Z,30.60
2023-03-11T02:35:16.471Z,30.60
2023-03-11T02:38:09.137Z,30.60
2023-03-11T02:40:58.506Z,30.60
2023-03-11T02:43:43.822Z,30.60
2023-03-11T02:46:11.091Z,30.60
2023-03-11T02:48:41.377Z,30.60
2023-03-11T02:51:07.855Z,30.60
2023-03-11T02:53:41.889Z,30.60
2023-03-11T02:56:07.980Z,30.60
2023-03-11T02:58:37.111Z,30.50
2023-03-11T03:01:06.414Z,30.60
2023-03-11T03:03:38.888Z,30.50
2023-03-11T03:06:05.540Z,30.60
2023-03-11T03:08:31.605Z,30.50
2023-03-11T03:11:07.133Z,30.60
2023-03-11T03:13:33.273Z,30.60
2023-03-11T03:16:12.768Z,30.60
2023-03-11T03:18:39.064Z,30.60
2023-03-11T03:21:11.253Z,30.60
2023-03-11T03:23:49.261Z,30.70
2023-03-11T03:26:19.485Z,30.60
2023-03-11T03:28:45.724Z,30.60
2023-03-11T03:31:11.896Z,30.60
2023-03-11T03:33:38.394Z,30.60
2023-03-11T03:36:10.396Z,31.30
2023-03-11T03:38:43.146Z,30.50
2023-03-11T03:41:15.173Z,30.50
2023-03-11T03:43:54.083Z,30.50
2023-03-11T03:46:22.135Z,30.50
2023-03-11T03:48:51.742Z,30.40
2023-03-11T03:51:22.324Z,30.40
2023-03-11T03:53:53.251Z,30.40
2023-03-11T03:56:24.357Z,31.00
2023-03-11T03:59:00.805Z,30.30
2023-03-11T04:01:26.998Z,30.30
2023-03-11T04:03:53.155Z,30.30
2023-03-11T04:06:29.139Z,30.20
2023-03-11T04:08:56.864Z,30.30
2023-03-11T04:11:29.439Z,30.20
2023-03-11T04:13:57.860Z,30.20
2023-03-11T04:16:24.675Z,30.20
2023-03-11T04:18:54.722Z,30.10
2023-03-11T04:21:24.982Z,30.10
2023-03-11T04:23:52.797Z,30.10
2023-03-11T04:26:44.437Z,30.10
2023-03-11T04:29:10.820Z,30.00
2023-03-11T04:31:40.796Z,30.00
2023-03-11T04:34:10.685Z,30.00
2023-03-11T04:36:46.293Z,30.00
2023-03-11T04:39:35.761Z,30.00
2023-03-11T04:42:30.466Z,30.00
2023-03-11T04:45:10.288Z,30.00
2023-03-11T04:47:40.157Z,29.90
2023-03-11T04:50:18.308Z,29.90
2023-03-11T04:52:45.405Z,29.90
2023-03-11T04:55:13.318Z,29.90
2023-03-11T04:57:45.230Z,29.90
2023-03-11T05:00:12.311Z,29.80
2023-03-11T05:02:43.018Z,29.90
2023-03-11T05:05:24.537Z,29.90
2023-03-11T05:07:51.874Z,29.80
2023-03-11T05:10:21.693Z,29.80
2023-03-11T05:12:51.423Z,29.80
2023-03-11T05:15:29.608Z,29.80
2023-03-11T05:18:00.962Z,29.80
2023-03-11T05:20:28.265Z,29.80
2023-03-11T05:23:07.372Z,29.70
2023-03-11T05:25:54.100Z,29.70
2023-03-11T05:28:26.169Z,29.70
2023-03-11T05:31:00.994Z,29.70
2023-03-11T05:33:50.281Z,29.70
2023-03-11T05:36:43.464Z,29.70
2023-03-11T05:39:10.556Z,29.60
2023-03-11T05:41:36.833Z,29.60
2023-03-11T05:44:03.812Z,29.60
2023-03-11T05:46:31.979Z,29.60
2023-03-11T05:49:04.721Z,29.60
2023-03-11T05:51:50.357Z,29.50
2023-03-11T05:54:17.877Z,29.60
2023-03-11T05:56:45.165Z,29.50
2023-03-11T05:59:16.554Z,29.50
2023-03-11T06:01:44.294Z,29.50
2023-03-11T06:04:13.781Z,29.50
2023-03-11T06:06:40.864Z,29.50
2023-03-11T06:09:14.608Z,29.50
2023-03-11T06:11:41.240Z,29.40
2023-03-11T06:14:12.881Z,29.40
2023-03-11T06:16:43.930Z,29.40
2023-03-11T06:19:10.087Z,29.40
2023-03-11T06:21:43.121Z,29.40
2023-03-11T06:24:09.415Z,29.40
2023-03-11T06:26:35.713Z,29.40
2023-03-11T06:29:26.024Z,29.40
2023-03-11T06:31:57.060Z,29.40
2023-03-11T06:34:23.285Z,29.40
2023-03-11T06:36:49.334Z,29.40
2023-03-11T06:39:15.742Z,29.40
2023-03-11T06:41:45.970Z,29.40
2023-03-11T06:44:14.358Z,29.40
2023-03-11T06:46:43.842Z,29.40
2023-03-11T06:49:12.423Z,29.40
2023-03-11T06:51:42.564Z,29.40
2023-03-11T06:54:09.604Z,29.40
2023-03-11T06:56:38.892Z,29.40
2023-03-11T06:59:08.253Z,29.40
2023-03-11T07:01:39.381Z,29.40
2023-03-11T07:04:05.528Z,29.40
2023-03-11T07:06:33.558Z,29.40
2023-03-11T07:08:59.652Z,29.40
2023-03-11T07:11:27.134Z,29.40
2023-03-11T07:13:56.627Z,29.40
2023-03-11T07:16:30.624Z,29.40
2023-03-11T07:19:00.194Z,29.40
2023-03-11T07:21:33.852Z,29.40
2023-03-11T07:24:03.427Z,29.40
2023-03-11T07:26:37.091Z,29.40
2023-03-11T07:29:03.622Z,29.40
2023-03-11T07:31:35.219Z,29.40
2023-03-11T07:34:10.525Z,29.40
2023-03-11T07:36:41.491Z,29.40
2023-03-11T07:39:17.613Z,29.40
2023-03-11T07:41:46.117Z,29.40
2023-03-11T07:44:14.474Z,29.40
2023-03-11T07:46:41.276Z,29.40
2023-03-11T07:49:10.644Z,29.40
2023-03-11T07:51:44.163Z,29.40
2023-03-11T07:54:12.169Z,29.40
2023-03-11T07:56:43.073Z,29.40
2023-03-11T07:59:12.888Z,29.40
2023-03-11T08:01:40.616Z,29.40
2023-03-11T08:04:10.541Z,29.40
2023-03-11T08:06:42.247Z,29.40
2023-03-11T08:09:08.881Z,29.40
2023-03-11T08:11:56.172Z,29.40
2023-03-11T08:14:22.289Z,29.40
2023-03-11T08:16:48.420Z,29.40
2023-03-11T08:19:21.244Z,29.40
2023-03-11T08:21:49.248Z,29.40
2023-03-11T08:24:18.125Z,29.40
2023-03-11T08:26:46.839Z,29.40
2023-03-11T08:29:16.589Z,29.40
2023-03-11T08:31:42.657Z,29.40
2023-03-11T08:34:15.017Z,29.40
2023-03-11T08:36:45.097Z,29.40
2023-03-11T08:39:15.407Z,29.40
2023-03-11T08:41:41.526Z,29.40
2023-03-11T08:44:19.068Z,29.40
2023-03-11T08:46:48.611Z,29.40
2023-03-11T08:49:16.636Z,29.40
2023-03-11T08:51:48.557Z,29.40
2023-03-11T08:54:14.841Z,29.40
2023-03-11T08:56:47.295Z,29.40
2023-03-11T08:59:22.224Z,29.40
2023-03-11T09:01:52.249Z,29.40
2023-03-11T09:04:30.877Z,29.40
2023-03-11T09:06:57.004Z,29.40
2023-03-11T09:09:25.692Z,29.40
2023-03-11T09:11:55.517Z,29.40
2023-03-11T09:14:23.406Z,29.40
2023-03-11T09:16:49.540Z,29.90
2023-03-11T09:19:20.491Z,29.40
2023-03-11T09:21:54.398Z,29.40
2023-03-11T09:24:20.473Z,29.40
2023-03-11T09:26:46.551Z,29.40
2023-03-11T09:29:18.647Z,29.40
2023-03-11T09:31:44.874Z,29.40
2023-03-11T09:34:16.490Z,29.40
2023-03-11T09:36:44.583Z,29.40
2023-03-11T09:39:12.670Z,29.40
2023-03-11T09:41:58.023Z,29.40
2023-03-11T09:45:07.192Z,29.40
2023-03-11T09:48:12.726Z,29.40
2023-03-11T09:51:38.830Z,29.40
2023-03-11T09:54:22.282Z,29.40
2023-03-11T09:56:48.712Z,29.40
2023-03-11T09:59:25.486Z,29.40
2023-03-11T10:01:51.919Z,29.40
2023-03-11T10:04:32.934Z,29.40
2023-03-11T10:07:01.653Z,29.40
2023-03-11T10:09:46.733Z,29.40
2023-03-11T10:12:50.668Z,29.40
2023-03-11T10:15:49.725Z,29.40
2023-03-11T10:18:47.088Z,29.40
2023-03-11T10:21:25.234Z,29.40
2023-03-11T10:24:57.318Z,29.40
2023-03-11T10:27:36.923Z,29.40
2023-03-11T10:30:29.666Z,29.40
2023-03-11T10:33:20.508Z,29.40
2023-03-11T10:35:54.498Z,29.40
2023-03-11T10:38:42.715Z,29.50
2023-03-11T10:41:51.394Z,29.40
2023-03-11T10:44:39.177Z,29.40
2023-03-11T10:47:15.166Z,29.50
2023-03-11T10:49:42.577Z,29.50
2023-03-11T10:52:08.653Z,29.50
2023-03-11T10:54:39.088Z,29.50
2023-03-11T10:57:21.179Z,29.40
2023-03-11T10:59:59.301Z,29.50
2023-03-11T11:03:15.056Z,29.40
2023-03-11T11:05:41.166Z,29.40
2023-03-11T11:08:20.301Z,29.40
2023-03-11T11:10:55.673Z,29.50
2023-03-11T11:13:24.111Z,29.50
2023-03-11T11:16:28.878Z,29.40
2023-03-11T11:19:14.575Z,29.40
2023-03-11T11:21:48.033Z,29.40
2023-03-11T11:24:25.268Z,29.40
2023-03-11T11:27:28.794Z,29.40
2023-03-11T11:30:16.989Z,29.40
2023-03-11T11:32:43.512Z,29.40
2023-03-11T11:35:18.768Z,29.50
2023-03-11T11:37:56.616Z,29.50
2023-03-11T11:40:33.273Z,29.40
2023-03-11T11:43:13.766Z,29.40
2023-03-11T11:45:49.647Z,29.40
2023-03-11T11:48:53.127Z,29.50
2023-03-11T11:51:23.973Z,29.40
2023-03-11T11:54:09.445Z,29.40
2023-03-11T11:56:35.567Z,29.40
2023-03-11T11:59:25.950Z,29.40
2023-03-11T12:02:21.979Z,29.50
2023-03-11T12:04:57.897Z,29.40
2023-03-11T12:08:24.560Z,29.40
2023-03-11T12:11:26.045Z,29.40
2023-03-11T12:14:24.479Z,29.40
2023-03-11T12:17:02.590Z,29.50
2023-03-11T12:20:03.925Z,29.40
2023-03-11T12:22:53.695Z,29.40
2023-03-11T12:25:39.634Z,29.40
2023-03-11T12:28:26.183Z,29.40
2023-03-11T12:31:04.914Z,29.40
2023-03-11T12:33:41.067Z,29.40
2023-03-11T12:36:20.069Z,29.40
2023-03-11T12:38:48.348Z,29.50
2023-03-11T12:41:14.353Z,29.40
2023-03-11T12:43:46.592Z,29.40
2023-03-11T12:46:21.164Z,29.40
2023-03-11T12:49:14.278Z,29.50
2023-03-11T12:52:24.578Z,29.40
2023-03-11T12:55:26.810Z,29.40
2023-03-11T12:58:03.123Z,29.40
2023-03-11T13:01:08.953Z,29.50
2023-03-11T13:03:54.807Z,29.40
2023-03-11T13:06:34.168Z,29.40
2023-03-11T13:09:09.398Z,29.40
2023-03-11T13:11:51.134Z,29.40
2023-03-11T13:14:32.875Z,29.40
2023-03-11T13:17:25.468Z,29.40
2023-03-11T13:20:14.114Z,29.40
2023-03-11T13:22:48.156Z,29.40
2023-03-11T13:25:52.548Z,29.40
2023-03-11T13:28:52.661Z,29.50
2023-03-11T13:31:47.522Z,29.40
2023-03-11T13:34:29.795Z,29.40
2023-03-11T13:37:23.634Z,29.40
2023-03-11T13:40:13.300Z,29.40
2023-03-11T13:43:04.165Z,29.40
2023-03-11T13:45:37.135Z,29.40
2023-03-11T13:48:14.177Z,29.40
2023-03-11T13:50:48.254Z,29.40
2023-03-11T13:53:22.957Z,29.40
2023-03-11T13:55:49.555Z,29.40
2023-03-11T13:58:25.146Z,29.40
2023-03-11T14:01:01.785Z,29.40
2023-03-11T14:03:43.542Z,29.40
2023-03-11T14:06:19.782Z,29.40
2023-03-11T14:09:00.312Z,29.50
2023-03-11T14:11:51.160Z,29.40
2023-03-11T14:14:51.335Z,29.40
2023-03-11T14:17:19.403Z,29.40
2023-03-11T14:20:18.094Z,29.40
2023-03-11T14:22:50.887Z,29.40
2023-03-11T14:25:36.046Z,29.40
2023-03-11T14:28:08.140Z,29.40
2023-03-11T14:30:37.679Z,29.50
2023-03-11T14:33:25.106Z,29.40
2023-03-11T14:36:04.044Z,29.40
2023-03-11T14:38:32.755Z,29.40
2023-03-11T14:41:28.104Z,29.40
2023-03-11T14:44:00.216Z,29.40
2023-03-11T14:46:29.857Z,29.40
2023-03-11T14:49:09.396Z,29.40
2023-03-11T14:51:36.930Z,29.40
2023-03-11T14:54:22.617Z,29.40
2023-03-11T14:57:21.636Z,29.40
2023-03-11T14:59:56.397Z,29.40
2023-03-11T15:02:57.517Z,29.40
2023-03-11T15:06:06.794Z,29.40
2023-03-11T15:09:02.072Z,29.40
2023-03-11T15:12:21.540Z,29.40
2023-03-11T15:14:53.040Z,29.40
2023-03-11T15:17:44.320Z,29.40
2023-03-11T15:20:36.065Z,29.40
2023-03-11T15:23:51.444Z,29.40
2023-03-11T15:26:49.465Z,29.40
2023-03-11T15:29:17.373Z,29.40
2023-03-11T15:32:15.788Z,29.40
2023-03-11T15:35:07.151Z,29.40
2023-03-11T15:37:33.932Z,29.40
2023-03-11T15:40:30.005Z,29.40
2023-03-11T15:43:31.596Z,29.40
2023-03-11T15:46:29.777Z,29.40
2023-03-11T15:48:57.347Z,29.40
2023-03-11T15:51:27.662Z,29.40
2023-03-11T15:54:25.513Z,29.40
2023-03-11T15:56:51.971Z,29.40
2023-03-11T15:59:22.363Z,29.40
2023-03-11T16:01:52.880Z,29.40
2023-03-11T16:04:20.315Z,29.50
2023-03-11T16:06:56.515Z,29.40
2023-03-11T16:10:08.364Z,29.40
2023-03-11T16:12:46.210Z,29.40
2023-03-11T16:15:33.297Z,29.40
2023-03-11T16:18:19.663Z,29.40
2023-03-11T16:20:55.699Z,29.50
2023-03-11T16:26:55.258Z,29.50
2023-03-11T16:29:28.535Z,29.50
2023-03-11T16:31:58.509Z,29.40
2023-03-11T16:35:04.610Z,29.90
2023-03-11T16:37:35.949Z,29.40
2023-03-11T16:40:02.510Z,29.40
2023-03-11T16:42:45.533Z,29.40
2023-03-11T16:45:13.394Z,29.40
2023-03-11T16:47:41.441Z,29.30
2023-03-11T16:50:08.479Z,29.30
2023-03-11T16:52:36.469Z,29.30
2023-03-11T16:55:14.462Z,29.30
2023-03-11T16:57:49.871Z,29.20
2023-03-11T17:00:21.371Z,29.20
2023-03-11T17:03:01.772Z,29.10
2023-03-11T17:05:38.731Z,29.10
2023-03-11T17:08:29.561Z,29.10
2023-03-11T17:11:05.485Z,29.10
2023-03-11T17:13:38.436Z,29.00
2023-03-11T17:16:12.382Z,29.00
2023-03-11T17:18:38.618Z,29.00
2023-03-11T17:21:11.349Z,29.00
2023-03-11T17:23:44.600Z,29.00
2023-03-11T17:26:16.108Z,28.90
2023-03-11T17:28:47.736Z,28.90
2023-03-11T17:31:16.531Z,28.90
2023-03-11T17:33:45.968Z,28.80
2023-03-11T17:36:15.620Z,28.80
2023-03-11T17:38:43.100Z,28.80
2023-03-11T17:41:16.667Z,28.80
2023-03-11T17:43:51.568Z,28.80
2023-03-11T17:46:36.756Z,28.70
2023-03-11T17:49:11.771Z,28.70
2023-03-11T17:51:47.794Z,28.70
2023-03-11T17:54:20.485Z,28.60
2023-03-11T18:00:15.991Z,28.60
2023-03-11T18:02:46.926Z,28.60
2023-03-11T18:05:13.034Z,27.60
2023-03-11T18:07:39.272Z,27.90
2023-03-11T18:10:19.139Z,28.10
2023-03-11T18:12:46.255Z,28.20
2023-03-11T18:15:21.916Z,28.20
2023-03-11T18:17:50.419Z,28.20
2023-03-11T18:20:16.784Z,28.20
2023-03-11T18:22:46.193Z,28.20
2023-03-11T18:25:16.897Z,28.20
2023-03-11T18:27:49.053Z,28.30
2023-03-11T18:30:18.277Z,28.30
2023-03-11T18:32:51.415Z,28.30
2023-03-11T18:35:41.935Z,28.30
2023-03-11T18:38:08.187Z,28.40
2023-03-11T18:40:35.783Z,28.20
2023-03-11T18:43:01.847Z,28.30
2023-03-11T18:45:31.430Z,28.30
2023-03-11T18:50:43.119Z,28.30
2023-03-11T18:53:26.823Z,28.30
2023-03-11T18:56:24.443Z,28.30
2023-03-11T18:58:50.598Z,28.30
2023-03-11T19:01:39.286Z,28.30
2023-03-11T19:04:08.793Z,28.30
2023-03-11T19:06:37.000Z,28.30
2023-03-11T19:09:11.038Z,28.30
2023-03-11T19:11:38.355Z,28.30
2023-03-11T19:14:04.512Z,28.40
2023-03-11T19:16:38.065Z,28.30
2023-03-11T19:19:04.235Z,28.30
2023-03-11T19:21:47.708Z,28.30
2023-03-11T19:24:14.290Z,28.30
2023-03-11T19:26:46.213Z,28.30
2023-03-11T19:29:28.359Z,28.40
2023-03-11T19:31:54.420Z,28.40
2023-03-11T19:34:28.601Z,28.40
2023-03-11T19:36:58.587Z,28.30
2023-03-11T19:39:24.683Z,28.40
2023-03-11T19:41:50.756Z,28.30
2023-03-11T19:44:25.877Z,28.30
2023-03-11T19:46:54.996Z,28.30
2023-03-11T19:52:15.919Z,28.30
2023-03-11T19:54:50.912Z,28.30
2023-03-11T19:57:17.028Z,28.40
2023-03-11T19:59:47.672Z,28.30
2023-03-11T20:02:19.504Z,28.30
2023-03-11T20:04:56.062Z,28.30
2023-03-11T20:07:30.118Z,28.40
2023-03-11T20:09:57.106Z,28.40
2023-03-11T20:12:25.379Z,28.40
2023-03-11T20:14:51.420Z,28.40
2023-03-11T20:17:30.098Z,28.40
2023-03-11T20:20:02.093Z,28.40
2023-03-11T20:22:30.196Z,28.40
2023-03-11T20:25:00.918Z,28.40
2023-03-11T20:27:32.686Z,28.40
2023-03-11T20:30:01.808Z,28.40
2023-03-11T20:32:35.046Z,28.40
2023-03-11T20:35:01.348Z,28.90
2023-03-11T20:37:30.693Z,28.40
2023-03-11T20:39:58.988Z,28.40
2023-03-11T20:42:42.428Z,28.40
2023-03-11T20:45:10.003Z,28.40
2023-03-11T20:47:45.191Z,28.40
2023-03-11T20:50:31.550Z,28.40
2023-03-11T20:53:05.717Z,28.40
2023-03-11T20:55:36.685Z,28.40
2023-03-11T20:58:04.106Z,28.40
2023-03-11T21:00:34.980Z,28.40
2023-03-11T21:03:17.121Z,28.40
2023-03-11T21:05:48.705Z,28.40
2023-03-11T21:08:16.447Z,28.40
2023-03-11T21:10:42.514Z,28.40
2023-03-11T21:13:15.433Z,28.40
2023-03-11T21:15:42.884Z,28.40
2023-03-11T21:18:10.688Z,28.40
2023-03-11T21:20:38.153Z,28.40
2023-03-11T21:23:09.820Z,28.40
2023-03-11T21:25:44.739Z,28.40
2023-03-11T21:28:11.012Z,28.40
2023-03-11T21:30:47.063Z,28.40
2023-03-11T21:33:21.314Z,28.40
2023-03-11T21:36:17.340Z,28.40
2023-03-11T21:38:46.253Z,28.40
2023-03-11T21:41:13.677Z,28.40
2023-03-11T21:43:51.166Z,28.40
2023-03-11T21:46:34.882Z,28.40
2023-03-11T21:49:07.592Z,28.30
2023-03-11T21:51:37.879Z,28.40
2023-03-11T21:54:05.377Z,28.40
2023-03-11T21:56:42.256Z,28.40
2023-03-11T21:59:24.170Z,28.40
2023-03-11T22:01:52.465Z,28.40
2023-03-11T22:04:31.280Z,28.40
2023-03-11T22:06:57.716Z,28.40
2023-03-11T22:09:25.130Z,28.40
2023-03-11T22:11:55.411Z,28.40
2023-03-11T22:14:23.681Z,28.40
2023-03-11T22:16:56.681Z,28.40
2023-03-11T22:19:25.885Z,28.40
2023-03-11T22:21:55.975Z,28.40
2023-03-11T22:24:25.206Z,28.40
2023-03-11T22:26:54.558Z,28.40
2023-03-11T22:29:20.824Z,28.40
2023-03-11T22:31:52.817Z,28.40
2023-03-11T22:34:18.911Z,28.40
2023-03-11T22:36:52.978Z,28.90
2023-03-11T22:39:20.918Z,28.40
2023-03-11T22:42:01.530Z,28.40
2023-03-11T22:44:28.488Z,28.40
2023-03-11T22:46:58.097Z,28.40
2023-03-11T22:49:29.000Z,28.40
2023-03-11T22:54:52.027Z,28.40
2023-03-11T22:57:24.181Z,28.40
2023-03-11T23:00:21.222Z,28.40
2023-03-11T23:02:53.805Z,28.40
2023-03-11T23:05:29.937Z,28.40
2023-03-11T23:08:02.713Z,28.40
2023-03-11T23:10:34.680Z,28.40
2023-03-11T23:13:05.135Z,28.40
2023-03-11T23:15:32.521Z,28.40
2023-03-11T23:18:04.442Z,28.40
2023-03-11T23:20:44.824Z,28.40
2023-03-11T23:23:24.888Z,28.40
2023-03-11T23:25:57.245Z,28.40
2023-03-11T23:28:23.295Z,28.40
2023-03-11T23:31:11.930Z,28.40
2023-03-11T23:33:44.351Z,28.40
2023-03-11T23:36:13.360Z,28.40
2023-03-11T23:38:44.155Z,28.40
2023-03-11T23:41:22.969Z,28.40
2023-03-11T23:43:53.379Z,28.40
2023-03-11T23:46:21.274Z,28.40
2023-03-11T23:48:51.872Z,28.40
2023-03-11T23:51:25.574Z,28.40
2023-03-11T23:53:55.231Z,28.40
2023-03-11T23:56:42.704Z,28.40
2023-03-11T23:59:08.781Z,28.40
